createdAt,value
2019-01-05T00:01:36.684Z,66.53
2019-01-05T00:04:29.444Z,62.03
2019-01-05T00:07:14.937Z,58.93
2019-01-05T00:10:21.307Z,60.10
2019-01-05T00:13:02.236Z,60.87
2019-01-05T00:15:49.305Z,66.93
2019-01-05T00:18:36.321Z,58.73
2019-01-05T00:21:24.201Z,53.70
2019-01-05T00:24:22.465Z,57.83
2019-01-05T00:27:09.820Z,64.47
2019-01-05T00:30:02.365Z,65.87
2019-01-05T00:32:51.736Z,64.50
2019-01-05T00:35:53.008Z,62.33
2019-01-05T00:38:48.005Z,59.37
2019-01-05T00:41:38.573Z,67.20
2019-01-05T00:44:26.821Z,65.43
2019-01-05T00:47:15.796Z,61.07
2019-01-05T00:50:09.587Z,60.50
2019-01-05T00:53:01.104Z,54.00
2019-01-05T00:55:51.570Z,58.20
2019-01-05T00:58:29.929Z,51.67
2019-01-05T01:01:16.862Z,55.43
2019-01-05T01:04:03.638Z,53.60
2019-01-05T01:06:46.159Z,54.33
2019-01-05T01:09:34.348Z,58.57
2019-01-05T01:12:20.893Z,57.23
2019-01-05T01:15:07.728Z,57.73
2019-01-05T01:17:54.960Z,56.23
2019-01-05T01:20:43.374Z,59.13
2019-01-05T01:23:30.423Z,54.27
2019-01-05T01:26:36.929Z,43.60
2019-01-05T01:29:25.386Z,45.60
2019-01-05T01:32:22.429Z,53.53
2019-01-05T01:35:10.182Z,48.97
2019-01-05T01:38:34.693Z,50.50
2019-01-05T01:41:37.381Z,47.23
2019-01-05T01:44:34.565Z,50.17
2019-01-05T01:47:36.714Z,45.93
2019-01-05T01:50:25.541Z,48.37
2019-01-05T01:53:15.534Z,48.23
2019-01-05T01:56:18.073Z,42.10
2019-01-05T01:59:13.787Z,46.70
2019-01-05T02:02:01.877Z,41.47
2019-01-05T02:04:53.183Z,44.67
2019-01-05T02:08:01.438Z,45.40
2019-01-05T02:10:51.669Z,45.27
2019-01-05T02:13:42.911Z,42.70
2019-01-05T02:16:34.630Z,39.30
2019-01-05T02:20:05.905Z,43.67
2019-01-05T02:23:36.966Z,46.93
2019-01-05T02:26:56.797Z,41.53
2019-01-05T02:30:39.787Z,43.00
2019-01-05T02:33:55.028Z,46.20
2019-01-05T02:37:33.100Z,49.17
2019-01-05T02:41:30.365Z,41.57
2019-01-05T02:44:59.501Z,43.63
2019-01-05T02:48:36.184Z,43.20
2019-01-05T02:52:14.726Z,46.37
2019-01-05T02:55:52.897Z,45.83
2019-01-05T02:59:31.336Z,48.00
2019-01-05T03:03:13.197Z,45.10
2019-01-05T03:06:25.293Z,40.33
2019-01-05T03:09:55.649Z,39.70
2019-01-05T03:13:08.141Z,37.97
2019-01-05T03:16:25.061Z,38.37
2019-01-05T03:20:04.655Z,44.00
2019-01-05T03:23:49.295Z,38.77
2019-01-05T03:27:34.801Z,38.40
2019-01-05T03:31:03.938Z,42.37
2019-01-05T03:34:23.496Z,37.00
2019-01-05T03:37:47.495Z,35.23
2019-01-05T03:40:58.466Z,41.23
2019-01-05T03:44:05.898Z,37.03
2019-01-05T03:47:46.528Z,38.67
2019-01-05T03:51:14.499Z,40.03
2019-01-05T03:54:51.761Z,40.53
2019-01-05T03:58:20.743Z,38.50
2019-01-05T04:01:19.451Z,37.73
2019-01-05T04:04:48.931Z,34.27
2019-01-05T04:08:16.235Z,38.77
2019-01-05T04:11:49.232Z,37.67
2019-01-05T04:15:12.834Z,37.63
2019-01-05T04:18:59.746Z,33.57
2019-01-05T04:22:41.326Z,32.93
2019-01-05T04:26:08.373Z,36.13
2019-01-05T04:29:23.065Z,40.63
2019-01-05T04:33:03.445Z,34.50
2019-01-05T04:36:53.620Z,33.03
2019-01-05T04:40:03.737Z,32.57
2019-01-05T04:43:30.734Z,30.47
2019-01-05T04:46:59.378Z,32.47
2019-01-05T04:50:54.558Z,30.80
2019-01-05T04:54:15.109Z,29.93
2019-01-05T04:57:46.034Z,31.90
2019-01-05T05:00:59.697Z,30.37
2019-01-05T05:04:27.645Z,32.43
2019-01-05T05:08:13.673Z,36.73
2019-01-05T05:11:44.473Z,29.97
2019-01-05T05:15:19.473Z,29.60
2019-01-05T05:18:50.370Z,31.37
2019-01-05T05:22:13.751Z,31.13
2019-01-05T05:25:49.385Z,31.97
2019-01-05T05:29:23.717Z,34.00
2019-01-05T05:33:06.169Z,30.27
2019-01-05T05:36:53.519Z,31.10
2019-01-05T05:40:17.496Z,37.13
2019-01-05T05:43:56.738Z,39.43
2019-01-05T05:47:39.513Z,36.17
2019-01-05T05:51:20.117Z,36.93
2019-01-05T05:55:14.523Z,38.70
2019-01-05T05:58:20.525Z,39.93
2019-01-05T06:01:56.097Z,37.50
2019-01-05T06:05:41.941Z,41.33
2019-01-05T06:09:04.926Z,40.50
2019-01-05T06:12:39.713Z,40.53
2019-01-05T06:16:36.765Z,40.00
2019-01-05T06:20:15.401Z,39.93
2019-01-05T06:23:46.404Z,36.27
2019-01-05T06:27:19.589Z,36.47
2019-01-05T06:30:40.258Z,36.17
2019-01-05T06:34:06.573Z,41.07
2019-01-05T06:37:39.426Z,40.23
2019-01-05T06:41:11.101Z,39.43
2019-01-05T06:44:19.811Z,36.33
2019-01-05T06:47:50.857Z,42.83
2019-01-05T06:51:17.581Z,37.00
2019-01-05T06:54:57.178Z,33.67
2019-01-05T06:58:44.801Z,35.23
2019-01-05T07:02:00.864Z,33.10
2019-01-05T07:05:48.149Z,35.07
2019-01-05T07:09:21.742Z,36.70
2019-01-05T07:12:43.317Z,37.30
2019-01-05T07:15:59.437Z,38.37
2019-01-05T07:19:30.169Z,42.73
2019-01-05T07:23:07.581Z,34.83
2019-01-05T07:26:48.356Z,39.40
2019-01-05T07:30:25.976Z,36.80
2019-01-05T07:34:05.829Z,35.00
2019-01-05T07:37:36.310Z,37.70
2019-01-05T07:41:22.325Z,40.43
2019-01-05T07:45:01.209Z,42.00
2019-01-05T07:48:25.260Z,44.80
2019-01-05T07:51:56.489Z,46.40
2019-01-05T07:55:42.653Z,38.47
2019-01-05T07:59:21.826Z,38.23
2019-01-05T08:03:07.752Z,36.10
2019-01-05T08:06:31.034Z,41.20
2019-01-05T08:10:01.821Z,43.63
2019-01-05T08:13:40.538Z,47.17
2019-01-05T08:17:30.011Z,45.13
2019-01-05T08:21:07.365Z,44.97
2019-01-05T08:24:46.477Z,45.67
2019-01-05T08:28:15.140Z,47.43
2019-01-05T08:31:41.541Z,46.43
2019-01-05T08:35:21.566Z,51.63
2019-01-05T08:38:57.941Z,69.90
2019-01-05T08:42:24.922Z,53.53
2019-01-05T08:46:07.497Z,56.60
2019-01-05T08:49:33.149Z,58.97
2019-01-05T08:52:53.301Z,56.23
2019-01-05T08:56:38.473Z,58.17
2019-01-05T09:00:13.256Z,63.97
2019-01-05T09:03:38.520Z,84.20
2019-01-05T09:07:01.466Z,61.70
2019-01-05T09:10:33.508Z,64.77
2019-01-05T09:14:15.965Z,48.43
2019-01-05T09:18:06.386Z,57.30
2019-01-05T09:21:51.403Z,62.17
2019-01-05T09:25:27.106Z,64.70
2019-01-05T09:28:36.390Z,68.87
2019-01-05T09:31:56.169Z,72.03
2019-01-05T09:35:37.174Z,74.93
2019-01-05T09:39:30.214Z,59.50
2019-01-05T09:43:09.797Z,88.67
2019-01-05T09:46:38.162Z,77.37
2019-01-05T09:50:13.537Z,84.27
2019-01-05T09:53:39.300Z,83.13
2019-01-05T09:57:04.396Z,99.57
2019-01-05T10:00:32.822Z,83.10
2019-01-05T10:04:01.469Z,91.73
2019-01-05T10:07:17.849Z,95.03
2019-01-05T10:10:35.014Z,87.23
2019-01-05T10:14:12.681Z,89.13
2019-01-05T10:17:35.602Z,89.40
2019-01-05T10:21:11.784Z,107.30
2019-01-05T10:24:55.702Z,124.20
2019-01-05T10:28:15.106Z,101.83
2019-01-05T10:31:55.414Z,85.33
2019-01-05T10:35:38.715Z,79.20
2019-01-05T10:39:22.001Z,80.80
2019-01-05T10:42:56.584Z,93.50
2019-01-05T10:46:25.657Z,106.57
2019-01-05T10:49:41.377Z,89.03
2019-01-05T10:53:07.069Z,92.67
2019-01-05T10:56:49.427Z,96.33
2019-01-05T11:00:08.862Z,78.97
2019-01-05T11:03:46.138Z,83.33
2019-01-05T11:07:20.333Z,74.80
2019-01-05T11:11:13.929Z,64.80
2019-01-05T11:14:33.305Z,67.70
2019-01-05T11:18:01.075Z,66.67
2019-01-05T11:21:32.494Z,54.03
2019-01-05T11:25:06.698Z,51.90
2019-01-05T11:28:43.765Z,56.40
2019-01-05T11:32:06.197Z,46.40
2019-01-05T11:35:26.262Z,35.77
2019-01-05T11:38:49.607Z,40.53
2019-01-05T11:42:10.430Z,30.57
2019-01-05T11:45:35.741Z,49.00
2019-01-05T11:49:08.376Z,40.60
2019-01-05T11:52:38.670Z,41.10
2019-01-05T11:55:57.002Z,41.27
2019-01-05T11:59:26.085Z,45.23
2019-01-05T12:03:16.241Z,41.77
2019-01-05T12:07:15.698Z,42.90
2019-01-05T12:10:34.805Z,41.07
2019-01-05T12:14:19.398Z,40.47
2019-01-05T12:17:49.277Z,58.37
2019-01-05T12:21:22.465Z,45.10
2019-01-05T12:24:51.167Z,42.33
2019-01-05T12:28:29.430Z,44.07
2019-01-05T12:31:53.477Z,43.20
2019-01-05T12:35:33.413Z,41.93
2019-01-05T12:38:50.933Z,43.63
2019-01-05T12:42:34.355Z,48.67
2019-01-05T12:45:52.625Z,42.37
2019-01-05T12:49:20.997Z,34.33
2019-01-05T12:52:45.413Z,37.10
2019-01-05T12:56:06.545Z,39.70
2019-01-05T12:59:57.543Z,90.43
2019-01-05T13:03:24.684Z,88.33
2019-01-05T13:07:02.858Z,55.57
2019-01-05T13:10:51.090Z,34.03
2019-01-05T13:14:21.811Z,38.53
2019-01-05T13:18:06.214Z,40.37
2019-01-05T13:21:29.992Z,40.47
2019-01-05T13:25:04.309Z,38.73
2019-01-05T13:28:20.465Z,36.13
2019-01-05T13:32:03.539Z,36.20
2019-01-05T13:35:52.046Z,33.87
2019-01-05T13:39:34.034Z,42.53
2019-01-05T13:43:21.765Z,41.77
2019-01-05T13:47:05.210Z,64.37
2019-01-05T13:50:39.681Z,56.70
2019-01-05T13:53:59.335Z,52.67
2019-01-05T13:57:13.313Z,53.07
2019-01-05T14:00:13.825Z,44.70
2019-01-05T14:03:01.273Z,58.90
2019-01-05T14:05:57.177Z,37.47
2019-01-05T14:08:44.642Z,31.40
2019-01-05T14:11:32.797Z,32.93
2019-01-05T14:14:39.357Z,39.73
2019-01-05T14:17:24.072Z,40.67
2019-01-05T14:20:12.245Z,42.93
2019-01-05T14:22:59.306Z,35.07
2019-01-05T14:25:50.986Z,30.07
2019-01-05T14:28:33.381Z,34.17
2019-01-05T14:31:20.714Z,32.87
2019-01-05T14:34:21.233Z,30.90
2019-01-05T14:37:01.867Z,38.07
2019-01-05T14:39:50.013Z,41.27
2019-01-05T14:42:38.171Z,40.83
2019-01-05T14:45:26.258Z,60.50
2019-01-05T14:48:18.430Z,46.67
2019-01-05T14:51:05.238Z,41.17
2019-01-05T14:53:56.793Z,41.67
2019-01-05T14:56:43.663Z,47.37
2019-01-05T14:59:38.005Z,53.13
2019-01-05T15:02:24.782Z,58.30
2019-01-05T15:05:11.721Z,47.47
2019-01-05T15:07:58.762Z,59.53
2019-01-05T15:10:45.885Z,39.23
2019-01-05T15:13:28.693Z,44.73
2019-01-05T15:16:15.538Z,46.40
2019-01-05T15:19:12.662Z,43.73
2019-01-05T15:21:59.497Z,36.03
2019-01-05T15:24:57.018Z,38.53
2019-01-05T15:27:54.101Z,46.27
2019-01-05T15:30:59.950Z,43.73
2019-01-05T15:33:46.692Z,48.27
2019-01-05T15:36:33.798Z,51.63
2019-01-05T15:39:28.105Z,41.77
2019-01-05T15:42:28.394Z,40.93
2019-01-05T15:45:22.393Z,55.57
2019-01-05T15:48:16.858Z,41.90
2019-01-05T15:51:03.941Z,52.00
2019-01-05T15:53:53.778Z,64.40
2019-01-05T15:56:44.723Z,55.00
2019-01-05T15:59:41.949Z,56.97
2019-01-05T16:02:33.073Z,55.37
2019-01-05T16:05:20.373Z,56.60
2019-01-05T16:08:07.786Z,56.40
2019-01-05T16:11:11.313Z,71.33
2019-01-05T16:13:55.085Z,59.80
2019-01-05T16:16:43.251Z,59.00
2019-01-05T16:19:30.064Z,63.73
2019-01-05T16:22:17.312Z,52.60
2019-01-05T16:25:05.486Z,56.03
2019-01-05T16:27:59.691Z,60.13
2019-01-05T16:30:46.741Z,54.33
2019-01-05T16:33:39.934Z,76.57
2019-01-05T16:36:37.425Z,63.37
2019-01-05T16:39:38.155Z,75.13
2019-01-05T16:42:35.161Z,82.27
2019-01-05T16:45:26.469Z,63.37
2019-01-05T16:48:20.425Z,69.87
2019-01-05T16:51:01.645Z,69.43
2019-01-05T16:53:59.849Z,55.70
2019-01-05T16:56:52.382Z,57.07
2019-01-05T16:59:58.798Z,60.73
2019-01-05T17:02:59.029Z,50.20
2019-01-05T17:05:47.493Z,55.97
2019-01-05T17:08:40.713Z,55.13
2019-01-05T17:11:27.469Z,55.27
2019-01-05T17:14:15.625Z,61.60
2019-01-05T17:17:02.625Z,64.07
2019-01-05T17:19:50.140Z,48.47
2019-01-05T17:22:36.264Z,49.10
2019-01-05T17:25:23.613Z,51.60
2019-01-05T17:28:11.773Z,55.67
2019-01-05T17:30:55.799Z,59.53
2019-01-05T17:33:34.785Z,49.87
2019-01-05T17:36:29.081Z,46.73
2019-01-05T17:39:15.925Z,59.87
2019-01-05T17:42:03.346Z,67.27
2019-01-05T17:45:06.713Z,76.63
2019-01-05T17:47:53.669Z,66.53
2019-01-05T17:50:44.682Z,76.90
2019-01-05T17:53:35.697Z,72.30
2019-01-05T17:56:26.905Z,75.30
2019-01-05T17:59:08.816Z,82.53
2019-01-05T18:02:00.071Z,85.47
2019-01-05T18:04:46.832Z,80.30
2019-01-05T18:07:35.034Z,81.53
2019-01-05T18:10:28.668Z,86.47
2019-01-05T18:13:15.094Z,79.90
2019-01-05T18:16:01.953Z,81.57
2019-01-05T18:18:50.219Z,76.20
2019-01-05T18:21:50.549Z,77.97
2019-01-05T18:24:37.390Z,66.23
2019-01-05T18:27:25.587Z,68.60
2019-01-05T18:30:14.118Z,65.00
2019-01-05T18:33:01.535Z,61.40
2019-01-05T18:35:48.930Z,46.90
2019-01-05T18:38:36.131Z,51.50
2019-01-05T18:41:23.543Z,46.57
2019-01-05T18:44:14.788Z,38.17
2019-01-05T18:47:01.994Z,54.17
2019-01-05T18:49:56.248Z,54.60
2019-01-05T18:52:47.276Z,44.93
2019-01-05T18:55:35.512Z,33.97
2019-01-05T18:58:23.722Z,45.13
2019-01-05T19:01:18.404Z,33.67
2019-01-05T19:04:16.203Z,29.23
2019-01-05T19:07:14.048Z,29.67
2019-01-05T19:10:11.217Z,37.40
2019-01-05T19:13:02.217Z,24.77
2019-01-05T19:15:49.344Z,30.53
2019-01-05T19:18:49.731Z,34.40
2019-01-05T19:21:36.669Z,28.17
2019-01-05T19:24:23.618Z,31.07
2019-01-05T19:27:10.821Z,26.50
2019-01-05T19:29:59.508Z,30.50
2019-01-05T19:33:05.869Z,28.37
2019-01-05T19:36:07.093Z,31.33
2019-01-05T19:38:53.964Z,32.80
2019-01-05T19:41:45.223Z,29.07
2019-01-05T19:44:32.087Z,31.67
2019-01-05T19:47:18.922Z,31.07
2019-01-05T19:50:06.285Z,22.77
2019-01-05T19:53:09.805Z,27.50
2019-01-05T19:55:51.393Z,27.57
2019-01-05T19:58:51.905Z,27.20
2019-01-05T20:01:36.462Z,24.93
2019-01-05T20:04:23.333Z,25.53
2019-01-05T20:07:10.674Z,36.87
2019-01-05T20:09:58.834Z,32.33
2019-01-05T20:12:50.908Z,35.57
2019-01-05T20:15:39.061Z,33.00
2019-01-05T20:18:36.325Z,38.40
2019-01-05T20:21:29.753Z,35.43
2019-01-05T20:24:25.298Z,36.60
2019-01-05T20:27:13.441Z,38.70
2019-01-05T20:30:02.031Z,41.50
2019-01-05T20:33:02.111Z,36.73
2019-01-05T20:35:49.577Z,32.13
2019-01-05T20:38:46.809Z,37.57
2019-01-05T20:41:50.381Z,31.97
2019-01-05T20:44:38.982Z,42.83
2019-01-05T20:47:27.474Z,40.13
2019-01-05T20:50:15.723Z,38.93
2019-01-05T20:53:02.882Z,38.83
2019-01-05T20:56:00.062Z,41.97
2019-01-05T20:58:52.774Z,40.17
2019-01-05T21:01:59.517Z,37.90
2019-01-05T21:04:48.163Z,43.03
2019-01-05T21:07:35.078Z,39.20
2019-01-05T21:10:38.490Z,45.70
2019-01-05T21:13:45.037Z,41.90
2019-01-05T21:16:45.541Z,40.60
2019-01-05T21:19:32.285Z,54.73
2019-01-05T21:22:26.420Z,48.73
2019-01-05T21:25:13.570Z,45.57
2019-01-05T21:28:14.818Z,44.93
2019-01-05T21:31:01.625Z,33.03
2019-01-05T21:33:49.046Z,31.10
2019-01-05T21:36:39.718Z,30.27
2019-01-05T21:39:28.218Z,33.00
2019-01-05T21:42:31.081Z,28.60
2019-01-05T21:45:18.224Z,34.23
2019-01-05T21:48:15.537Z,32.13
2019-01-05T21:51:02.584Z,34.67
2019-01-05T21:53:54.253Z,28.80
2019-01-05T21:56:53.109Z,34.70
2019-01-05T21:59:40.403Z,27.83
2019-01-05T22:02:38.133Z,27.23
2019-01-05T22:05:32.461Z,31.07
2019-01-05T22:08:19.717Z,30.27
2019-01-05T22:11:17.449Z,29.63
2019-01-05T22:14:04.877Z,29.37
2019-01-05T22:16:56.828Z,29.43
2019-01-05T22:20:00.490Z,29.10
2019-01-05T22:22:40.216Z,21.10
2019-01-05T22:25:37.509Z,25.83
2019-01-05T22:28:34.180Z,19.37
2019-01-05T22:31:22.230Z,20.20
2019-01-05T22:34:09.368Z,19.97
2019-01-05T22:36:57.685Z,22.27
2019-01-05T22:39:45.101Z,18.73
2019-01-05T22:42:33.904Z,18.90
2019-01-05T22:45:25.433Z,18.63
2019-01-05T22:48:20.465Z,20.37
2019-01-05T22:51:07.319Z,22.20
2019-01-05T22:54:02.428Z,21.83
2019-01-05T22:56:49.512Z,22.97
2019-01-05T22:59:36.789Z,20.90
2019-01-05T23:02:22.117Z,25.60
2019-01-05T23:05:13.453Z,28.23
2019-01-05T23:08:00.716Z,29.33
2019-01-05T23:10:48.921Z,27.43
2019-01-05T23:13:39.881Z,21.03
2019-01-05T23:16:46.413Z,18.70
2019-01-05T23:19:33.483Z,17.17
2019-01-05T23:22:28.082Z,16.37
2019-01-05T23:25:31.629Z,20.73
2019-01-05T23:28:32.521Z,21.60
2019-01-05T23:31:25.042Z,16.53
2019-01-05T23:34:31.649Z,21.77
2019-01-05T23:37:18.245Z,23.10
2019-01-05T23:40:05.388Z,22.43
2019-01-05T23:42:52.381Z,25.90
2019-01-05T23:45:38.299Z,22.53
2019-01-05T23:48:25.261Z,27.27
2019-01-05T23:51:12.663Z,25.33
2019-01-05T23:53:59.666Z,24.20
2019-01-05T23:56:46.913Z,19.37
2019-01-05T23:59:35.713Z,17.70
